Pride of Baltimore II — WUW2120 — position and weather

sailwx.info

Track history (hours):
 
Tides and Currents Weather Stations Pressure Air Temp Water Temp Dewpoint Dewpoint Depression Visibility Wind Speed Wind Dir Waves Ship Positions

Pride of Baltimore II (United States)

Reproduction of an 1812-era Baltimore Clipper privateer.

Ship's website: http://www.pride2.org/

Owner: PRIDE OF BALTIMORE INC, BALTIMORE, MD. More information available from US FCC via Universal Licensing System and Coast Guard Vessel Documentation Center.

Last reported at 2016-Jul-27 00:00 UTC. Time now 2016-Jul-28 12:28 UTC.
Position N 42°18' W 087°18'.

Type: Sailing vessel. MMSI: 303302000.

Wind from 070 at 3 knots

Barometer 1015.2 mb
Air temperature 29.5 ° C
Visibility: greater than 10.8 NM
Dewpoint 22.7 ° C
Water temperature 28.5 ° C

Date/timePositionNaut miles runAvg speedWind from/ knotsBaromVisibWave heightAir tempDewpointWater temp
2016-Jul-27 00:00N 42°18' W 087°18'44 7.3 070 / 31015.210.8 29.522.728.5
2016-Jul-26 18:00N 43°00' W 087°00'108 6.0 290 / 31026.410.8 24.020.825.0
2016-Jul-26 00:00N 44°42' W 086°12'35 6.4 220 / 21013.510.8 25.020.822.2
2016-Jul-25 18:34N 45°10' W 085°42'7 6.3
2016-Jul-25 17:31N 45°14' W 085°35'6 6.2
2016-Jul-25 16:34N 45°16' W 085°27'7 6.5
2016-Jul-25 15:34N 45°19' W 085°19'3 3.2
2016-Jul-25 14:34N 45°19' W 085°15'  
2016-Jul-22 19:33N 45°18' W 085°12'5 5.0
2016-Jul-22 18:33N 45°22' W 085°16'3 5.5
2016-Jul-22 18:00N 45°24' W 085°12'510.9 260 / 8991.5 22.520.221.0
2016-Jul-22 17:33N 45°28' W 085°14'7 6.5
2016-Jul-22 16:33N 45°35' W 085°13'6 5.7
2016-Jul-22 15:33N 45°40' W 085°12'5 5.1
2016-Jul-22 14:33N 45°45' W 085°09'5 4.8
2016-Jul-22 13:33N 45°50' W 085°06'6 6.1
2016-Jul-22 12:33N 45°49' W 084°57'611.5
2016-Jul-22 12:00N 45°48' W 084°48'2 3.5 280 / 101012.010.8 20.519.420.3
2016-Jul-22 11:33N 45°50' W 084°48'6 5.9
2016-Jul-22 10:33N 45°50' W 084°39'2 1.7
2016-Jul-22 09:29N 45°51' W 084°37'0 0.0
2016-Jul-22 08:32N 45°51' W 084°37'0 0.0
2016-Jul-22 07:29N 45°51' W 084°37'0 0.0
2016-Jul-22 06:23N 45°51' W 084°37'0 0.0
2016-Jul-22 04:23N 45°51' W 084°37'0 0.0
2016-Jul-21 22:29N 45°51' W 084°37'0 0.0
2016-Jul-21 20:23N 45°51' W 084°37'0 0.0
2016-Jul-21 19:17N 45°51' W 084°37'0 0.0
2016-Jul-21 18:31N 45°51' W 084°37'0 0.0
2016-Jul-21 17:31N 45°51' W 084°37'0 0.0
2016-Jul-21 16:31N 45°51' W 084°37'0 0.0
2016-Jul-21 13:22N 45°51' W 084°37'0 0.0
2016-Jul-21 11:10N 45°51' W 084°37'0 0.0
2016-Jul-21 10:31N 45°51' W 084°37'0 0.0
2016-Jul-21 09:28N 45°51' W 084°37'0 0.0
2016-Jul-21 08:28N 45°51' W 084°37'0 0.0
2016-Jul-21 06:22N 45°51' W 084°37'0 0.0
2016-Jul-21 04:22N 45°51' W 084°37'0 0.0
2016-Jul-21 03:28N 45°51' W 084°37'0 0.0
2016-Jul-21 02:22N 45°51' W 084°37'0 0.0
2016-Jul-20 23:22N 45°51' W 084°37'0 0.0
2016-Jul-20 22:28N 45°51' W 084°37'0 0.0
2016-Jul-20 21:16N 45°51' W 084°37'0 0.0
2016-Jul-20 20:28N 45°51' W 084°37'0 0.0
2016-Jul-20 19:28N 45°51' W 084°37'2 2.5
2016-Jul-20 18:31N 45°51' W 084°33'4 4.3
2016-Jul-20 17:31N 45°51' W 084°27'18 3.2
2016-Jul-20 12:00N 45°42' W 084°06'2 2.9 220 / 71021.7 5.4 0.517.514.918.4
2016-Jul-20 11:17N 45°41' W 084°09'46 8.7
2016-Jul-20 06:00N 45°12' W 083°18'79 2.2 220 / 71022.010.8 17.012.719.0
2016-Jul-18 18:00N 43°54' W 083°36'   290 / 81017.0 5.4 0.527.017.926.0
Track history (hours):
 
Tides and Currents Weather Stations Pressure Air Temp Water Temp Dewpoint Dewpoint Depression Visibility Wind Speed Wind Dir Waves Ship Positions

Pride of Baltimore II (United States)

Reproduction of an 1812-era Baltimore Clipper privateer.

Ship's website: http://www.pride2.org/

Owner: PRIDE OF BALTIMORE INC, BALTIMORE, MD. More information available from US FCC via Universal Licensing System and Coast Guard Vessel Documentation Center.

Last reported at 2016-Jul-27 00:00 UTC. Time now 2016-Jul-28 12:28 UTC.
Position N 42°18' W 087°18'.

Type: Sailing vessel. MMSI: 303302000.

Wind from 070 at 3 knots

Barometer 1015.2 mb
Air temperature 29.5 ° C
Visibility: greater than 10.8 NM
Dewpoint 22.7 ° C
Water temperature 28.5 ° C

Date/timePositionNaut miles runAvg speedWind from/ knotsBaromVisibWave heightAir tempDewpointWater temp
2016-Jul-27 00:00N 42°18' W 087°18'44 7.3 070 / 31015.210.8 29.522.728.5
2016-Jul-26 18:00N 43°00' W 087°00'108 6.0 290 / 31026.410.8 24.020.825.0
2016-Jul-26 00:00N 44°42' W 086°12'35 6.4 220 / 21013.510.8 25.020.822.2
2016-Jul-25 18:34N 45°10' W 085°42'7 6.3
2016-Jul-25 17:31N 45°14' W 085°35'6 6.2
2016-Jul-25 16:34N 45°16' W 085°27'7 6.5
2016-Jul-25 15:34N 45°19' W 085°19'3 3.2
2016-Jul-25 14:34N 45°19' W 085°15'  
2016-Jul-22 19:33N 45°18' W 085°12'5 5.0
2016-Jul-22 18:33N 45°22' W 085°16'3 5.5
2016-Jul-22 18:00N 45°24' W 085°12'510.9 260 / 8991.5 22.520.221.0
2016-Jul-22 17:33N 45°28' W 085°14'7 6.5
2016-Jul-22 16:33N 45°35' W 085°13'6 5.7
2016-Jul-22 15:33N 45°40' W 085°12'5 5.1
2016-Jul-22 14:33N 45°45' W 085°09'5 4.8
2016-Jul-22 13:33N 45°50' W 085°06'6 6.1
2016-Jul-22 12:33N 45°49' W 084°57'611.5
2016-Jul-22 12:00N 45°48' W 084°48'2 3.5 280 / 101012.010.8 20.519.420.3
2016-Jul-22 11:33N 45°50' W 084°48'6 5.9
2016-Jul-22 10:33N 45°50' W 084°39'2 1.7
2016-Jul-22 09:29N 45°51' W 084°37'0 0.0
2016-Jul-22 08:32N 45°51' W 084°37'0 0.0
2016-Jul-22 07:29N 45°51' W 084°37'0 0.0
2016-Jul-22 06:23N 45°51' W 084°37'0 0.0
2016-Jul-22 04:23N 45°51' W 084°37'0 0.0
2016-Jul-21 22:29N 45°51' W 084°37'0 0.0
2016-Jul-21 20:23N 45°51' W 084°37'0 0.0
2016-Jul-21 19:17N 45°51' W 084°37'0 0.0
2016-Jul-21 18:31N 45°51' W 084°37'0 0.0
2016-Jul-21 17:31N 45°51' W 084°37'0 0.0
2016-Jul-21 16:31N 45°51' W 084°37'0 0.0
2016-Jul-21 13:22N 45°51' W 084°37'0 0.0
2016-Jul-21 11:10N 45°51' W 084°37'0 0.0
2016-Jul-21 10:31N 45°51' W 084°37'0 0.0
2016-Jul-21 09:28N 45°51' W 084°37'0 0.0
2016-Jul-21 08:28N 45°51' W 084°37'0 0.0
2016-Jul-21 06:22N 45°51' W 084°37'0 0.0
2016-Jul-21 04:22N 45°51' W 084°37'0 0.0
2016-Jul-21 03:28N 45°51' W 084°37'0 0.0
2016-Jul-21 02:22N 45°51' W 084°37'0 0.0
2016-Jul-20 23:22N 45°51' W 084°37'0 0.0
2016-Jul-20 22:28N 45°51' W 084°37'0 0.0
2016-Jul-20 21:16N 45°51' W 084°37'0 0.0
2016-Jul-20 20:28N 45°51' W 084°37'0 0.0
2016-Jul-20 19:28N 45°51' W 084°37'2 2.5
2016-Jul-20 18:31N 45°51' W 084°33'4 4.3
2016-Jul-20 17:31N 45°51' W 084°27'18 3.2
2016-Jul-20 12:00N 45°42' W 084°06'2 2.9 220 / 71021.7 5.4 0.517.514.918.4
2016-Jul-20 11:17N 45°41' W 084°09'46 8.7
2016-Jul-20 06:00N 45°12' W 083°18'79 2.2 220 / 71022.010.8 17.012.719.0
2016-Jul-18 18:00N 43°54' W 083°36'   290 / 81017.0 5.4 0.527.017.926.0

Dump ship's entire track history